createdAt,value
2023-04-19T00:02:30.565Z,11.60
2023-04-19T00:05:01.971Z,19.23
2023-04-19T00:07:33.934Z,13.55
2023-04-19T00:10:05.255Z,10.18
2023-04-19T00:15:08.355Z,10.70
2023-04-19T00:17:39.496Z,14.27
2023-04-19T00:20:12.070Z,15.18
2023-04-19T00:22:43.724Z,15.20
2023-04-19T00:25:15.178Z,14.25
2023-04-19T00:27:46.998Z,16.50
2023-04-19T00:30:18.598Z,11.95
2023-04-19T00:32:49.900Z,12.15
2023-04-19T00:35:21.733Z,15.80
2023-04-19T00:37:53.218Z,12.95
2023-04-19T00:40:24.876Z,12.80
2023-04-19T00:42:56.141Z,15.43
2023-04-19T00:45:28.321Z,13.35
2023-04-19T00:47:59.590Z,15.07
2023-04-19T00:50:31.933Z,11.80
2023-04-19T00:53:03.693Z,17.65
2023-04-19T00:55:34.790Z,14.57
2023-04-19T00:58:09.997Z,15.80
2023-04-19T01:00:41.436Z,10.35
2023-04-19T01:03:15.087Z,17.50
2023-04-19T01:05:46.802Z,13.10
2023-04-19T01:10:49.206Z,12.85
2023-04-19T01:13:20.758Z,12.77
2023-04-19T01:15:53.111Z,13.90
2023-04-19T01:18:27.014Z,15.45
2023-04-19T01:20:58.329Z,15.65
2023-04-19T01:23:29.349Z,12.77
2023-04-19T01:26:00.365Z,12.40
2023-04-19T01:31:02.432Z,16.20
2023-04-19T01:36:04.609Z,9.73
2023-04-19T01:38:37.688Z,10.27
2023-04-19T01:41:09.573Z,11.80
2023-04-19T01:43:41.049Z,12.50
2023-04-19T01:46:12.794Z,14.50
2023-04-19T01:48:44.173Z,12.80
2023-04-19T01:51:15.646Z,13.75
2023-04-19T01:53:47.037Z,13.25
2023-04-19T01:56:19.707Z,14.10
2023-04-19T01:58:51.033Z,12.82
2023-04-19T02:01:22.832Z,15.60
2023-04-19T02:03:55.882Z,10.55
2023-04-19T02:06:28.773Z,15.80
2023-04-19T02:09:00.445Z,17.15
2023-04-19T02:14:02.428Z,14.77
2023-04-19T02:16:35.762Z,14.65
2023-04-19T02:19:08.384Z,12.60
2023-04-19T02:21:39.956Z,14.82
2023-04-19T02:24:11.234Z,16.67
2023-04-19T02:26:42.886Z,15.77
2023-04-19T02:29:18.277Z,11.70
2023-04-19T02:31:49.974Z,13.30
2023-04-19T02:36:52.163Z,13.98
2023-04-19T02:39:23.419Z,14.75
2023-04-19T02:41:54.574Z,15.82
2023-04-19T02:44:26.401Z,12.88
2023-04-19T02:46:59.116Z,11.43
2023-04-19T02:49:30.169Z,13.10
2023-04-19T02:52:01.960Z,13.63
2023-04-19T02:54:35.512Z,18.23
2023-04-19T02:57:07.144Z,13.32
2023-04-19T02:59:39.091Z,14.00
2023-04-19T03:04:42.331Z,15.73
2023-04-19T03:07:14.095Z,13.70
2023-04-19T03:09:45.499Z,11.85
2023-04-19T03:12:17.114Z,13.48
2023-04-19T03:14:48.440Z,9.95
2023-04-19T03:17:20.248Z,16.10
2023-04-19T03:19:51.845Z,16.13
2023-04-19T03:22:23.849Z,14.75
2023-04-19T03:24:54.870Z,11.95
2023-04-19T03:27:26.983Z,12.52
2023-04-19T03:30:02.920Z,15.25
2023-04-19T03:32:37.438Z,13.13
2023-04-19T03:35:11.105Z,15.27
2023-04-19T03:37:42.694Z,14.32
2023-04-19T03:42:45.398Z,13.75
2023-04-19T03:45:24.191Z,12.70
2023-04-19T03:47:56.539Z,12.15
2023-04-19T03:50:28.846Z,11.98
2023-04-19T03:53:00.933Z,12.30
2023-04-19T03:58:03.440Z,11.48
2023-04-19T04:00:48.892Z,11.05
2023-04-19T04:03:20.790Z,10.68
2023-04-19T04:08:22.613Z,9.10
2023-04-19T04:10:54.565Z,12.63
2023-04-19T04:13:25.910Z,10.68
2023-04-19T04:16:09.231Z,15.30
2023-04-19T04:18:40.962Z,13.75
2023-04-19T04:21:14.994Z,14.18
2023-04-19T04:23:51.325Z,12.85
2023-04-19T04:26:35.393Z,15.77
2023-04-19T04:29:22.365Z,13.20
2023-04-19T04:31:58.313Z,18.17
2023-04-19T04:34:35.044Z,20.60
2023-04-19T04:37:11.413Z,17.95
2023-04-19T04:39:44.559Z,14.85
2023-04-19T04:42:16.242Z,15.75
2023-04-19T04:44:49.588Z,16.38
2023-04-19T04:47:21.170Z,15.32
2023-04-19T04:49:58.156Z,18.83
2023-04-19T04:52:29.299Z,17.70
2023-04-19T04:55:12.481Z,16.77
2023-04-19T04:57:47.275Z,18.30
2023-04-19T05:00:25.984Z,16.63
2023-04-19T05:03:08.205Z,17.20
2023-04-19T05:05:45.469Z,17.35
2023-04-19T05:08:17.130Z,18.05
2023-04-19T05:10:49.008Z,17.80
2023-04-19T05:13:21.215Z,17.30
2023-04-19T05:15:54.015Z,14.57
2023-04-19T05:18:25.767Z,18.98
2023-04-19T05:20:58.103Z,14.35
2023-04-19T05:23:33.880Z,19.75
2023-04-19T05:26:05.308Z,18.73
2023-04-19T05:28:36.847Z,17.13
2023-04-19T05:31:16.233Z,16.95
2023-04-19T05:33:56.018Z,18.48
2023-04-19T05:36:28.337Z,16.70
2023-04-19T05:38:59.596Z,16.58
2023-04-19T05:41:30.736Z,20.20
2023-04-19T05:44:01.893Z,15.23
2023-04-19T05:46:33.340Z,12.98
2023-04-19T05:49:05.243Z,14.43
2023-04-19T05:52:09.218Z,20.15
2023-04-19T05:54:49.056Z,17.15
2023-04-19T05:57:20.549Z,18.85
2023-04-19T05:59:52.046Z,16.48
2023-04-19T06:02:28.485Z,18.02
2023-04-19T06:05:02.439Z,18.02
2023-04-19T06:07:40.546Z,20.02
2023-04-19T06:10:15.421Z,13.77
2023-04-19T06:12:46.563Z,16.05
2023-04-19T06:15:17.701Z,13.55
2023-04-19T06:17:49.894Z,19.70
2023-04-19T06:20:21.279Z,15.95
2023-04-19T06:22:53.455Z,17.33
2023-04-19T06:25:24.967Z,18.75
2023-04-19T06:30:27.456Z,16.38
2023-04-19T06:35:29.646Z,15.32
2023-04-19T06:40:35.991Z,16.55
2023-04-19T06:43:07.241Z,18.15
2023-04-19T06:48:11.349Z,14.23
2023-04-19T06:50:42.817Z,16.73
2023-04-19T06:53:15.058Z,14.48
2023-04-19T06:55:47.698Z,17.27
2023-04-19T06:58:18.861Z,18.63
2023-04-19T07:00:50.052Z,16.15
2023-04-19T07:03:21.612Z,18.88
2023-04-19T07:05:54.168Z,18.23
2023-04-19T07:08:48.240Z,17.33
2023-04-19T07:11:21.254Z,20.02
2023-04-19T07:13:53.826Z,17.08
2023-04-19T07:16:26.847Z,22.23
2023-04-19T07:18:59.393Z,17.75
2023-04-19T07:21:34.747Z,20.50
2023-04-19T07:24:06.488Z,16.65
2023-04-19T07:29:09.036Z,18.10
2023-04-19T07:34:10.701Z,15.88
2023-04-19T07:36:42.060Z,18.95
2023-04-19T07:39:15.401Z,18.65
2023-04-19T07:41:47.970Z,14.93
2023-04-19T07:44:19.719Z,16.05
2023-04-19T07:49:22.402Z,17.15
2023-04-19T07:51:53.946Z,17.92
2023-04-19T07:54:25.704Z,15.85
2023-04-19T07:56:58.982Z,16.10
2023-04-19T07:59:30.817Z,21.85
2023-04-19T08:04:34.165Z,17.30
2023-04-19T08:07:06.356Z,16.98
2023-04-19T08:12:09.351Z,17.20
2023-04-19T08:14:55.559Z,19.95
2023-04-19T08:17:38.145Z,18.60
2023-04-19T08:20:13.802Z,16.75
2023-04-19T08:22:45.292Z,19.40
2023-04-19T08:25:17.106Z,17.23
2023-04-19T08:27:49.719Z,19.65
2023-04-19T08:30:20.997Z,20.02
2023-04-19T08:32:56.977Z,15.77
2023-04-19T08:35:29.031Z,19.85
2023-04-19T08:40:33.431Z,18.75
2023-04-19T08:43:08.978Z,15.32
2023-04-19T08:45:40.983Z,19.38
2023-04-19T08:48:13.436Z,19.23
2023-04-19T08:51:00.710Z,17.40
2023-04-19T08:53:37.292Z,17.10
2023-04-19T08:56:15.120Z,18.63
2023-04-19T08:59:07.613Z,16.98
2023-04-19T09:01:44.905Z,20.10
2023-04-19T09:04:35.682Z,20.75
2023-04-19T09:09:48.724Z,18.50
2023-04-19T09:12:28.554Z,15.77
2023-04-19T09:15:01.773Z,17.02
2023-04-19T09:17:39.643Z,19.08
2023-04-19T09:20:11.229Z,18.60
2023-04-19T09:22:42.600Z,14.38
2023-04-19T09:28:15.150Z,17.80
2023-04-19T09:30:55.113Z,18.27
2023-04-19T09:33:41.511Z,15.73
2023-04-19T09:36:14.578Z,19.75
2023-04-19T09:38:55.134Z,16.83
2023-04-19T09:41:26.814Z,16.83
2023-04-19T09:46:57.086Z,16.38
2023-04-19T09:49:41.614Z,12.18
2023-04-19T09:52:17.276Z,18.50
2023-04-19T09:57:20.635Z,16.95
2023-04-19T09:59:52.063Z,15.57
2023-04-19T10:02:25.266Z,18.65
2023-04-19T10:05:16.461Z,17.63
2023-04-19T10:07:50.212Z,17.17
2023-04-19T10:10:30.207Z,16.30
2023-04-19T10:15:54.113Z,17.42
2023-04-19T10:18:29.076Z,19.38
2023-04-19T10:21:04.066Z,17.00
2023-04-19T10:23:36.288Z,18.13
2023-04-19T10:26:08.747Z,16.23
2023-04-19T10:28:40.398Z,16.92
2023-04-19T10:33:44.943Z,17.92
2023-04-19T10:36:19.273Z,19.50
2023-04-19T10:38:55.208Z,16.73
2023-04-19T10:41:26.968Z,17.52
2023-04-19T10:46:30.543Z,15.15
2023-04-19T10:49:06.815Z,13.95
2023-04-19T10:51:45.859Z,14.15
2023-04-19T10:54:37.256Z,19.30
2023-04-19T10:57:12.866Z,17.77
2023-04-19T10:59:45.866Z,16.48
2023-04-19T11:02:27.466Z,18.77
2023-04-19T11:04:58.593Z,20.25
2023-04-19T11:07:40.099Z,18.73
2023-04-19T11:10:13.038Z,14.80
2023-04-19T11:12:45.530Z,17.08
2023-04-19T11:15:18.115Z,13.43
2023-04-19T11:18:08.986Z,16.60
2023-04-19T11:20:45.791Z,16.77
2023-04-19T11:23:21.117Z,14.88
2023-04-19T11:25:54.682Z,12.13
2023-04-19T11:28:26.137Z,15.80
2023-04-19T11:30:57.693Z,14.07
2023-04-19T11:33:30.130Z,14.30
2023-04-19T11:36:01.447Z,13.00
2023-04-19T11:41:06.935Z,13.30
2023-04-19T11:43:38.939Z,11.85
2023-04-19T11:46:12.306Z,14.13
2023-04-19T11:49:03.706Z,13.02
2023-04-19T11:51:34.994Z,16.00
2023-04-19T11:54:18.268Z,17.13
2023-04-19T11:57:09.071Z,11.90
2023-04-19T11:59:42.067Z,16.17
2023-04-19T12:02:14.893Z,13.35
2023-04-19T12:04:46.182Z,12.90
2023-04-19T12:07:17.855Z,17.23
2023-04-19T12:09:51.516Z,15.55
2023-04-19T12:12:35.382Z,14.60
2023-04-19T12:15:08.447Z,16.30
2023-04-19T12:18:02.406Z,12.65
2023-04-19T12:20:38.849Z,13.35
2023-04-19T12:23:12.771Z,15.38
2023-04-19T12:25:45.445Z,15.65
2023-04-19T12:28:18.031Z,12.63
2023-04-19T12:30:49.441Z,14.38
2023-04-19T12:33:22.210Z,12.80
2023-04-19T12:35:55.079Z,11.90
2023-04-19T12:40:57.098Z,12.05
2023-04-19T12:43:28.597Z,11.77
2023-04-19T12:46:03.770Z,11.55
2023-04-19T12:48:35.496Z,11.38
2023-04-19T12:51:07.134Z,11.73
2023-04-19T12:53:38.256Z,11.43
2023-04-19T12:56:09.586Z,11.68
2023-04-19T13:01:12.817Z,12.93
2023-04-19T13:03:45.292Z,14.70
2023-04-19T13:08:50.963Z,13.50
2023-04-19T13:11:24.503Z,14.90
2023-04-19T13:13:55.832Z,12.10
2023-04-19T13:16:27.083Z,12.35
2023-04-19T13:18:58.451Z,10.43
2023-04-19T13:21:30.131Z,9.75
2023-04-19T13:24:02.068Z,10.50
2023-04-19T13:26:35.563Z,13.38
2023-04-19T13:29:07.149Z,14.25
2023-04-19T13:31:38.416Z,12.07
2023-04-19T13:36:42.416Z,14.68
2023-04-19T13:39:13.926Z,13.65
2023-04-19T13:41:45.418Z,13.55
2023-04-19T13:44:17.085Z,16.25
2023-04-19T13:46:48.910Z,13.25
2023-04-19T13:49:20.952Z,12.10
2023-04-19T13:51:52.361Z,12.90
2023-04-19T13:56:55.892Z,11.88
2023-04-19T13:59:27.728Z,11.57
2023-04-19T14:01:58.824Z,10.80
2023-04-19T14:04:32.732Z,11.88
2023-04-19T14:07:04.269Z,12.68
2023-04-19T14:09:35.523Z,18.10
2023-04-19T14:12:07.298Z,12.93
2023-04-19T14:14:39.046Z,11.55
2023-04-19T14:17:10.287Z,13.20
2023-04-19T14:19:41.772Z,14.00
2023-04-19T14:22:12.959Z,11.52
2023-04-19T14:24:44.196Z,13.10
2023-04-19T14:27:15.347Z,9.55
2023-04-19T14:29:46.341Z,12.68
2023-04-19T14:32:26.013Z,12.82
2023-04-19T14:34:58.221Z,14.17
2023-04-19T14:37:29.712Z,14.80
2023-04-19T14:40:00.809Z,9.90
2023-04-19T14:42:33.752Z,11.15
2023-04-19T14:45:04.999Z,12.43
2023-04-19T14:47:36.932Z,13.52
2023-04-19T14:50:08.865Z,11.30
2023-04-19T14:52:40.570Z,13.57
2023-04-19T14:55:12.812Z,11.32
2023-04-19T14:57:44.450Z,12.13
2023-04-19T15:02:47.059Z,13.73
2023-04-19T15:05:19.801Z,11.82
2023-04-19T15:07:51.777Z,11.43
2023-04-19T15:10:23.350Z,11.02
2023-04-19T15:15:25.893Z,13.85
2023-04-19T15:17:58.298Z,11.23
2023-04-19T15:20:29.800Z,13.20
2023-04-19T15:23:01.661Z,13.00
2023-04-19T15:25:32.959Z,15.00
2023-04-19T15:28:05.597Z,13.68
2023-04-19T15:30:37.811Z,12.70
2023-04-19T15:35:40.618Z,15.40
2023-04-19T15:40:42.750Z,11.65
2023-04-19T15:43:14.341Z,12.32
2023-04-19T15:48:16.804Z,12.63
2023-04-19T15:53:19.270Z,11.13
2023-04-19T15:55:50.588Z,10.70
2023-04-19T15:58:21.829Z,12.65
2023-04-19T16:00:53.516Z,14.00
2023-04-19T16:05:57.211Z,11.40
2023-04-19T16:08:28.657Z,13.73
2023-04-19T16:13:31.460Z,11.38
2023-04-19T16:16:03.374Z,11.75
2023-04-19T16:18:35.009Z,12.18
2023-04-19T16:21:06.811Z,13.30
2023-04-19T16:23:38.218Z,9.40
2023-04-19T16:26:09.484Z,11.85
2023-04-19T16:28:40.611Z,12.98
2023-04-19T16:31:12.136Z,13.80
2023-04-19T16:36:14.324Z,9.50
2023-04-19T16:38:45.851Z,12.95
2023-04-19T16:41:17.172Z,11.57
2023-04-19T16:43:48.267Z,11.27
2023-04-19T16:46:19.541Z,16.80
2023-04-19T16:48:50.859Z,12.20
2023-04-19T16:51:22.806Z,8.90
2023-04-19T16:53:54.727Z,10.45
2023-04-19T16:56:26.289Z,15.23
2023-04-19T16:58:58.013Z,13.68
2023-04-19T17:04:00.276Z,11.10
2023-04-19T17:06:34.924Z,11.70
2023-04-19T17:09:09.282Z,11.43
2023-04-19T17:11:41.212Z,10.25
2023-04-19T17:14:12.767Z,11.98
2023-04-19T17:16:43.923Z,11.68
2023-04-19T17:19:16.018Z,12.18
2023-04-19T17:21:48.087Z,9.98
2023-04-19T17:26:51.505Z,10.88
2023-04-19T17:29:22.849Z,10.73
2023-04-19T17:34:25.121Z,9.98
2023-04-19T17:36:56.463Z,10.63
2023-04-19T17:39:29.431Z,13.07
2023-04-19T17:42:00.993Z,9.23
2023-04-19T17:44:32.509Z,13.20
2023-04-19T17:47:03.895Z,14.32
2023-04-19T17:49:35.278Z,10.70
2023-04-19T17:52:06.758Z,9.63
2023-04-19T17:54:38.074Z,11.05
2023-04-19T17:57:09.379Z,11.68
2023-04-19T17:59:40.529Z,14.30
2023-04-19T18:02:12.045Z,9.45
2023-04-19T18:04:46.154Z,10.15
2023-04-19T18:07:17.945Z,11.93
2023-04-19T18:09:49.114Z,10.98
2023-04-19T18:12:20.261Z,12.20
2023-04-19T18:14:51.467Z,14.52
2023-04-19T18:17:23.036Z,14.75
2023-04-19T18:22:24.619Z,11.68
2023-04-19T18:24:56.571Z,11.73
2023-04-19T18:27:29.277Z,13.20
2023-04-19T18:30:05.339Z,14.05
2023-04-19T18:32:37.102Z,13.50
2023-04-19T18:35:12.972Z,10.77
2023-04-19T18:37:44.835Z,10.85
2023-04-19T18:40:16.401Z,12.55
2023-04-19T18:45:19.086Z,10.73
2023-04-19T18:47:50.599Z,14.20
2023-04-19T18:52:53.074Z,12.73
2023-04-19T18:55:24.485Z,13.43
2023-04-19T19:00:26.821Z,13.32
2023-04-19T19:03:00.455Z,12.95
2023-04-19T19:05:33.557Z,14.05
2023-04-19T19:08:05.841Z,15.05
2023-04-19T19:11:07.058Z,11.70
2023-04-19T19:13:28.582Z,13.55
2023-04-19T19:16:00.131Z,12.63
2023-04-19T19:18:32.018Z,10.60
2023-04-19T19:21:03.854Z,15.55
2023-04-19T19:23:38.274Z,10.80
2023-04-19T19:26:16.668Z,11.40
2023-04-19T19:28:47.794Z,10.73
2023-04-19T19:34:08.740Z,13.90
2023-04-19T19:36:41.773Z,13.93
2023-04-19T19:39:13.013Z,8.55
2023-04-19T19:44:18.458Z,10.50
2023-04-19T19:46:49.980Z,10.73
2023-04-19T19:51:58.641Z,9.93
2023-04-19T19:54:30.958Z,11.02
2023-04-19T19:59:36.779Z,10.65
2023-04-19T20:02:09.022Z,10.45
2023-04-19T20:04:40.865Z,10.70
2023-04-19T20:09:51.875Z,10.75
2023-04-19T20:12:22.933Z,13.25
2023-04-19T20:14:58.124Z,11.65
2023-04-19T20:17:29.502Z,15.68
2023-04-19T20:20:07.344Z,15.80
2023-04-19T20:22:39.491Z,14.70
2023-04-19T20:25:12.348Z,14.45
2023-04-19T20:27:44.072Z,14.85
2023-04-19T20:30:15.991Z,12.82
2023-04-19T20:32:48.167Z,10.98
2023-04-19T20:35:19.689Z,16.85
2023-04-19T20:37:52.445Z,16.63
2023-04-19T20:40:24.480Z,13.95
2023-04-19T20:42:56.004Z,12.93
2023-04-19T20:45:27.770Z,14.30
2023-04-19T20:53:02.299Z,13.00
2023-04-19T20:58:04.930Z,10.52
2023-04-19T21:00:36.525Z,10.90
2023-04-19T21:03:08.206Z,11.45
2023-04-19T21:05:40.960Z,10.25
2023-04-19T21:08:12.575Z,13.27
2023-04-19T21:10:44.801Z,11.32
2023-04-19T21:13:16.338Z,11.57
2023-04-19T21:15:47.447Z,9.77
2023-04-19T21:18:19.289Z,12.82
2023-04-19T21:20:50.845Z,16.85
2023-04-19T21:23:22.455Z,14.38
2023-04-19T21:28:24.327Z,15.65
2023-04-19T21:30:56.866Z,16.10
2023-04-19T21:33:28.114Z,13.73
2023-04-19T21:35:59.316Z,17.45
2023-04-19T21:38:30.851Z,16.02
2023-04-19T21:41:02.463Z,15.25
2023-04-19T21:43:33.958Z,13.38
2023-04-19T21:46:06.499Z,13.05
2023-04-19T21:48:37.694Z,11.23
2023-04-19T21:53:40.114Z,12.35
2023-04-19T21:56:11.307Z,11.85
2023-04-19T21:58:42.498Z,13.82
2023-04-19T22:03:45.140Z,9.55
2023-04-19T22:06:18.565Z,12.43
2023-04-19T22:08:50.045Z,12.57
2023-04-19T22:11:22.536Z,10.60
2023-04-19T22:13:54.579Z,10.10
2023-04-19T22:16:29.801Z,10.07
2023-04-19T22:19:03.025Z,13.63
2023-04-19T22:21:34.815Z,11.40
2023-04-19T22:24:07.096Z,12.40
2023-04-19T22:26:38.777Z,12.43
2023-04-19T22:29:10.569Z,11.23
2023-04-19T22:34:12.142Z,8.20
2023-04-19T22:36:44.440Z,7.53
2023-04-19T22:39:19.861Z,12.13
2023-04-19T22:41:51.300Z,14.75
2023-04-19T22:44:22.691Z,10.35
2023-04-19T22:46:54.490Z,10.55
2023-04-19T22:49:26.720Z,13.77
2023-04-19T22:51:59.917Z,11.48
2023-04-19T22:54:31.730Z,11.07
2023-04-19T22:57:04.788Z,12.27
2023-04-19T22:59:36.245Z,12.90
2023-04-19T23:02:07.729Z,11.60
2023-04-19T23:07:10.729Z,16.38
2023-04-19T23:09:42.374Z,13.07
2023-04-19T23:12:17.137Z,11.13
2023-04-19T23:14:49.972Z,12.05
2023-04-19T23:17:21.391Z,12.85
2023-04-19T23:19:52.812Z,11.85
2023-04-19T23:22:24.322Z,9.95
2023-04-19T23:24:55.545Z,13.70
2023-04-19T23:27:27.247Z,10.65
2023-04-19T23:29:58.523Z,9.32
2023-04-19T23:32:29.902Z,9.95
2023-04-19T23:35:01.796Z,12.23
2023-04-19T23:37:34.279Z,13.50
2023-04-19T23:40:07.676Z,10.70
2023-04-19T23:42:41.561Z,11.15
2023-04-19T23:45:13.077Z,13.82
2023-04-19T23:50:14.673Z,13.00
2023-04-19T23:52:45.786Z,9.15
2023-04-19T23:55:17.933Z,12.52
2023-04-19T23:57:49.905Z,10.82
